createdAt,value
2019-04-20T00:01:20.006Z,10.97
2019-04-20T00:03:46.777Z,10.94
2019-04-20T00:06:19.495Z,10.88
2019-04-20T00:08:58.854Z,10.81
2019-04-20T00:11:28.332Z,10.82
2019-04-20T00:14:03.834Z,10.72
2019-04-20T00:16:31.627Z,10.73
2019-04-20T00:19:05.445Z,10.73
2019-04-20T00:21:58.622Z,10.77
2019-04-20T00:24:37.573Z,10.78
2019-04-20T00:27:32.934Z,10.75
2019-04-20T00:29:58.695Z,10.76
2019-04-20T00:32:30.013Z,10.79
2019-04-20T00:34:50.661Z,10.68
2019-04-20T00:37:23.352Z,10.62
2019-04-20T00:39:55.994Z,10.81
2019-04-20T00:42:33.976Z,10.91
2019-04-20T00:45:09.852Z,10.98
2019-04-20T00:47:45.492Z,10.80
2019-04-20T00:50:25.711Z,10.82
2019-04-20T00:52:55.767Z,10.67
2019-04-20T00:55:14.920Z,10.51
2019-04-20T00:57:54.874Z,10.32
2019-04-20T01:00:37.206Z,10.31
2019-04-20T01:03:09.847Z,10.23
2019-04-20T01:06:02.244Z,10.23
2019-04-20T01:08:21.364Z,10.22
2019-04-20T01:10:56.471Z,10.17
2019-04-20T01:13:28.098Z,10.17
2019-04-20T01:16:07.722Z,10.10
2019-04-20T01:18:32.604Z,10.24
2019-04-20T01:21:06.808Z,10.28
2019-04-20T01:23:43.779Z,10.24
2019-04-20T01:26:14.482Z,10.09
2019-04-20T01:28:54.176Z,10.08
2019-04-20T01:31:27.192Z,10.17
2019-04-20T01:33:58.897Z,10.15
2019-04-20T01:36:43.027Z,10.18
2019-04-20T01:39:09.402Z,10.19
2019-04-20T01:41:30.731Z,10.23
2019-04-20T01:44:02.708Z,10.18
2019-04-20T01:46:39.152Z,10.11
2019-04-20T01:49:14.797Z,10.20
2019-04-20T01:51:52.537Z,10.27
2019-04-20T01:54:33.927Z,10.34
2019-04-20T01:57:04.699Z,10.53
2019-04-20T01:59:53.386Z,10.61
2019-04-20T02:02:24.905Z,10.55
2019-04-20T02:05:08.107Z,10.45
2019-04-20T02:07:38.974Z,10.54
2019-04-20T02:10:11.364Z,10.59
2019-04-20T02:12:42.533Z,10.63
2019-04-20T02:15:23.140Z,10.69
2019-04-20T02:18:03.669Z,10.73
2019-04-20T02:20:39.718Z,10.81
2019-04-20T02:23:10.700Z,10.77
2019-04-20T02:25:29.063Z,10.71
2019-04-20T02:28:18.950Z,10.59
2019-04-20T02:31:23.119Z,10.62
2019-04-20T02:33:43.280Z,10.56
2019-04-20T02:41:50.535Z,10.87
2019-04-20T02:46:51.039Z,10.75
2019-04-20T02:51:46.696Z,10.70
2019-04-20T02:54:18.513Z,10.61
2019-04-20T02:57:00.659Z,10.70
2019-04-20T03:01:45.666Z,10.62
2019-04-20T03:04:04.870Z,10.59
2019-04-20T03:06:53.537Z,10.68
2019-04-20T03:09:31.507Z,10.59
2019-04-20T03:12:06.163Z,10.61
2019-04-20T03:14:31.918Z,10.67
2019-04-20T03:17:18.201Z,10.64
2019-04-20T03:19:38.665Z,10.73
2019-04-20T03:22:23.631Z,10.68
2019-04-20T03:24:53.928Z,10.70
2019-04-20T03:27:33.061Z,10.61
2019-04-20T03:31:15.719Z,10.63
2019-04-20T03:33:30.929Z,10.66
2019-04-20T03:35:43.601Z,10.82
2019-04-20T03:38:10.680Z,10.85
2019-04-20T03:40:37.573Z,10.96
2019-04-20T03:42:54.993Z,11.15
2019-04-20T03:45:31.488Z,11.45
2019-04-20T03:48:09.069Z,11.32
2019-04-20T03:50:50.436Z,11.12
2019-04-20T03:53:31.301Z,11.39
2019-04-20T03:56:29.779Z,11.36
2019-04-20T03:59:17.713Z,11.26
2019-04-20T04:02:25.464Z,11.22
2019-04-20T04:05:01.790Z,11.26
2019-04-20T04:07:21.859Z,11.27
2019-04-20T04:10:02.470Z,11.14
2019-04-20T04:13:11.770Z,11.08
2019-04-20T04:15:50.056Z,11.01
2019-04-20T04:18:27.761Z,11.00
2019-04-20T04:21:03.050Z,10.95
2019-04-20T04:23:47.119Z,10.92
2019-04-20T04:26:17.313Z,10.91
2019-04-20T04:28:49.042Z,10.83
2019-04-20T04:31:27.847Z,10.92
2019-04-20T04:33:59.332Z,10.84
2019-04-20T04:36:25.680Z,10.85
2019-04-20T04:39:19.252Z,10.74
2019-04-20T04:41:36.720Z,10.60
2019-04-20T04:44:09.678Z,10.56
2019-04-20T04:46:26.798Z,10.54
2019-04-20T04:49:08.840Z,10.67
2019-04-20T04:51:42.606Z,10.85
2019-04-20T04:54:16.345Z,10.98
2019-04-20T04:56:39.748Z,11.03
2019-04-20T04:59:10.968Z,11.24
2019-04-20T05:01:47.807Z,11.33
2019-04-20T05:04:57.888Z,11.35
2019-04-20T05:07:03.851Z,11.39
2019-04-20T05:09:23.824Z,11.38
2019-04-20T05:11:59.972Z,11.51
2019-04-20T05:14:41.859Z,11.55
2019-04-20T05:17:15.282Z,11.73
2019-04-20T05:19:52.825Z,11.96
2019-04-20T05:22:34.755Z,12.14
2019-04-20T05:25:12.957Z,12.25
2019-04-20T05:27:51.302Z,12.42
2019-04-20T05:30:08.223Z,12.54
2019-04-20T05:32:52.432Z,12.78
2019-04-20T05:35:31.082Z,12.94
2019-04-20T05:38:12.035Z,13.12
2019-04-20T05:40:38.976Z,13.34
2019-04-20T05:43:44.275Z,13.62
2019-04-20T05:46:23.540Z,13.91
2019-04-20T05:48:57.934Z,14.27
2019-04-20T05:51:29.546Z,14.52
2019-04-20T05:54:02.558Z,14.77
2019-04-20T05:56:35.813Z,14.93
2019-04-20T05:59:07.555Z,14.98
2019-04-20T06:01:47.582Z,15.13
2019-04-20T06:04:10.113Z,15.28
2019-04-20T06:06:49.597Z,15.60
2019-04-20T06:09:25.152Z,15.97
2019-04-20T06:12:07.694Z,16.36
2019-04-20T06:14:44.232Z,16.51
2019-04-20T06:17:26.465Z,16.71
2019-04-20T06:20:06.455Z,16.90
2019-04-20T06:22:40.760Z,17.09
2019-04-20T06:25:31.843Z,17.16
2019-04-20T06:27:52.819Z,17.44
2019-04-20T06:30:21.677Z,17.78
2019-04-20T06:34:07.570Z,17.74
2019-04-20T06:36:29.462Z,17.88
2019-04-20T06:39:02.026Z,17.93
2019-04-20T06:41:45.286Z,18.13
2019-04-20T06:44:08.644Z,18.43
2019-04-20T06:46:50.541Z,18.75
2019-04-20T06:49:18.455Z,19.22
2019-04-20T06:52:15.355Z,18.70
2019-04-20T06:55:03.349Z,18.95
2019-04-20T06:57:54.172Z,19.06
2019-04-20T07:00:15.460Z,19.40
2019-04-20T07:02:57.829Z,19.66
2019-04-20T07:08:07.021Z,19.67
2019-04-20T07:10:31.333Z,19.95
2019-04-20T07:13:01.461Z,20.02
2019-04-20T07:15:41.543Z,20.21
2019-04-20T07:18:26.558Z,20.04
2019-04-20T07:21:00.509Z,20.23
2019-04-20T07:23:37.162Z,20.38
2019-04-20T07:26:13.838Z,20.58
2019-04-20T07:28:45.073Z,20.45
2019-04-20T07:31:14.141Z,20.66
2019-04-20T07:33:55.150Z,20.55
2019-04-20T07:36:24.472Z,20.59
2019-04-20T07:39:05.573Z,21.02
2019-04-20T07:41:42.906Z,21.08
2019-04-20T07:44:10.583Z,21.41
2019-04-20T07:46:47.044Z,21.60
2019-04-20T07:49:12.778Z,21.73
2019-04-20T07:51:29.670Z,21.63
2019-04-20T07:54:24.576Z,21.50
2019-04-20T07:56:47.675Z,22.08
2019-04-20T07:59:13.963Z,22.01
2019-04-20T08:02:15.745Z,22.12
2019-04-20T08:04:52.386Z,22.12
2019-04-20T08:07:11.156Z,22.55
2019-04-20T08:09:49.792Z,22.73
2019-04-20T08:12:51.729Z,22.78
2019-04-20T08:15:32.244Z,22.65
2019-04-20T08:18:07.640Z,22.84
2019-04-20T08:20:29.867Z,22.69
2019-04-20T08:23:12.334Z,22.78
2019-04-20T08:25:27.730Z,22.68
2019-04-20T08:28:13.541Z,22.99
2019-04-20T08:31:21.713Z,22.91
2019-04-20T08:34:15.595Z,23.46
2019-04-20T08:36:44.204Z,23.99
2019-04-20T08:39:24.130Z,23.73
2019-04-20T08:41:45.277Z,24.02
2019-04-20T08:44:39.668Z,24.34
2019-04-20T08:47:00.246Z,23.67
2019-04-20T08:49:29.544Z,23.18
2019-04-20T08:52:05.847Z,23.13
2019-04-20T08:54:26.058Z,23.96
2019-04-20T08:56:51.801Z,23.53
2019-04-20T08:59:18.818Z,23.20
2019-04-20T09:01:51.109Z,23.83
2019-04-20T09:04:36.041Z,24.65
2019-04-20T09:07:05.571Z,24.77
2019-04-20T09:09:49.130Z,24.79
2019-04-20T09:12:19.143Z,24.29
2019-04-20T09:14:38.447Z,24.88
2019-04-20T09:17:26.412Z,24.89
2019-04-20T09:19:59.935Z,25.40
2019-04-20T09:22:45.713Z,25.73
2019-04-20T09:28:11.575Z,25.41
2019-04-20T09:30:42.887Z,25.63
2019-04-20T09:33:43.426Z,25.29
2019-04-20T09:36:18.211Z,25.34
2019-04-20T09:39:08.610Z,25.27
2019-04-20T09:42:00.710Z,26.39
2019-04-20T09:44:30.372Z,26.19
2019-04-20T09:47:00.445Z,26.18
2019-04-20T09:49:42.487Z,26.94
2019-04-20T09:52:16.906Z,26.99
2019-04-20T09:54:57.176Z,27.10
2019-04-20T09:57:30.918Z,27.06
2019-04-20T10:00:04.276Z,27.55
2019-04-20T10:02:24.054Z,27.17
2019-04-20T10:04:51.471Z,27.24
2019-04-20T10:07:26.214Z,27.06
2019-04-20T10:09:57.781Z,28.01
2019-04-20T10:12:29.449Z,27.58
2019-04-20T10:15:04.154Z,27.76
2019-04-20T10:17:35.748Z,27.05
2019-04-20T10:20:11.576Z,27.12
2019-04-20T10:22:42.302Z,27.35
2019-04-20T10:25:15.150Z,27.09
2019-04-20T10:27:47.478Z,26.56
2019-04-20T10:30:20.678Z,26.74
2019-04-20T10:32:53.953Z,26.96
2019-04-20T10:35:25.541Z,27.08
2019-04-20T10:38:15.688Z,27.57
2019-04-20T10:40:59.778Z,28.24
2019-04-20T10:43:20.158Z,28.43
2019-04-20T10:45:52.907Z,28.06
2019-04-20T10:48:24.461Z,28.00
2019-04-20T10:50:56.907Z,28.23
2019-04-20T10:53:30.001Z,27.94
2019-04-20T10:56:01.555Z,28.46
2019-04-20T10:58:33.759Z,28.54
2019-04-20T11:01:07.362Z,28.37
2019-04-20T11:03:40.733Z,28.82
2019-04-20T11:06:12.211Z,28.91
2019-04-20T11:08:44.590Z,28.41
2019-04-20T11:11:23.829Z,27.78
2019-04-20T11:13:49.471Z,28.35
2019-04-20T11:16:22.050Z,28.69
2019-04-20T11:18:53.667Z,28.12
2019-04-20T11:21:26.239Z,28.02
2019-04-20T11:23:58.832Z,28.96
2019-04-20T11:26:31.760Z,29.19
2019-04-20T11:29:04.186Z,28.97
2019-04-20T11:31:41.631Z,29.47
2019-04-20T11:34:10.124Z,29.13
2019-04-20T11:36:41.639Z,29.43
2019-04-20T11:39:14.768Z,29.85
2019-04-20T11:41:47.407Z,30.04
2019-04-20T11:44:20.011Z,29.35
2019-04-20T11:46:52.549Z,29.22
2019-04-20T11:49:23.992Z,29.65
2019-04-20T11:51:55.583Z,29.89
2019-04-20T11:54:28.310Z,29.06
2019-04-20T11:56:59.775Z,28.70
2019-04-20T11:59:32.983Z,29.03
2019-04-20T12:02:27.962Z,28.94
2019-04-20T12:05:10.240Z,29.73
2019-04-20T12:07:49.097Z,28.88
2019-04-20T12:10:23.997Z,29.39
2019-04-20T12:12:55.698Z,29.52
2019-04-20T12:15:28.927Z,28.56
2019-04-20T12:18:01.961Z,28.54
2019-04-20T12:20:34.560Z,28.57
2019-04-20T12:23:06.543Z,28.61
2019-04-20T12:25:39.679Z,29.10
2019-04-20T12:28:11.686Z,29.75
2019-04-20T12:30:43.884Z,29.45
2019-04-20T12:33:15.621Z,29.87
2019-04-20T12:35:48.017Z,29.44
2019-04-20T12:38:19.519Z,29.24
2019-04-20T12:40:52.379Z,29.00
2019-04-20T12:43:25.423Z,29.00
2019-04-20T12:45:57.965Z,30.03
2019-04-20T12:48:29.723Z,29.85
2019-04-20T12:51:01.591Z,29.25
2019-04-20T12:53:33.066Z,28.00
2019-04-20T12:56:04.520Z,27.69
2019-04-20T12:58:36.624Z,28.24
2019-04-20T13:01:08.088Z,28.78
2019-04-20T13:03:39.724Z,28.92
2019-04-20T13:06:12.091Z,29.02
2019-04-20T13:08:51.402Z,28.49
2019-04-20T13:11:24.773Z,28.66
2019-04-20T13:15:16.375Z,28.91
2019-04-20T13:17:50.670Z,29.12
2019-04-20T13:20:21.657Z,28.66
2019-04-20T13:22:53.130Z,29.72
2019-04-20T13:25:26.305Z,29.34
2019-04-20T13:27:58.873Z,29.39
2019-04-20T13:30:30.462Z,29.51
2019-04-20T13:33:02.133Z,29.92
2019-04-20T13:35:34.324Z,29.18
2019-04-20T13:38:05.885Z,29.29
2019-04-20T13:40:37.761Z,29.84
2019-04-20T13:43:09.946Z,29.53
2019-04-20T13:45:42.706Z,29.73
2019-04-20T13:48:15.114Z,29.69
2019-04-20T13:50:46.696Z,29.79
2019-04-20T13:53:19.178Z,29.26
2019-04-20T13:55:51.912Z,28.50
2019-04-20T13:58:41.473Z,28.61
2019-04-20T14:01:21.178Z,29.07
2019-04-20T14:04:05.267Z,29.47
2019-04-20T14:06:37.318Z,29.15
2019-04-20T14:09:10.015Z,29.08
2019-04-20T14:11:43.322Z,28.70
2019-04-20T14:14:15.149Z,28.99
2019-04-20T14:16:47.519Z,29.56
2019-04-20T14:19:19.048Z,29.52
2019-04-20T14:21:50.711Z,29.20
2019-04-20T14:24:22.127Z,29.08
2019-04-20T14:26:54.813Z,29.11
2019-04-20T14:29:27.293Z,29.56
2019-04-20T14:32:01.550Z,28.62
2019-04-20T14:34:33.106Z,28.20
2019-04-20T14:37:04.815Z,28.50
2019-04-20T14:39:36.394Z,28.43
2019-04-20T14:42:07.888Z,28.72
2019-04-20T14:44:39.560Z,28.49
2019-04-20T14:47:11.887Z,28.74
2019-04-20T14:49:43.522Z,28.58
2019-04-20T14:52:15.764Z,27.68
2019-04-20T14:54:47.704Z,27.86
2019-04-20T14:57:19.299Z,28.23
2019-04-20T14:59:57.231Z,28.35
2019-04-20T15:02:30.562Z,28.10
2019-04-20T15:05:03.251Z,28.00
2019-04-20T15:07:36.323Z,27.92
2019-04-20T15:10:09.021Z,27.80
2019-04-20T15:12:49.115Z,27.51
2019-04-20T15:15:14.695Z,27.35
2019-04-20T15:17:51.370Z,27.61
2019-04-20T15:20:39.514Z,27.61
2019-04-20T15:23:21.599Z,27.11
2019-04-20T15:25:54.721Z,27.12
2019-04-20T15:28:26.274Z,26.84
2019-04-20T15:30:58.324Z,26.95
2019-04-20T15:33:30.814Z,26.98
2019-04-20T15:36:02.268Z,27.02
2019-04-20T15:38:33.545Z,27.02
2019-04-20T15:41:06.936Z,27.14
2019-04-20T15:43:39.162Z,27.23
2019-04-20T15:46:10.988Z,26.97
2019-04-20T15:48:42.354Z,27.15
2019-04-20T15:51:17.098Z,27.19
2019-04-20T15:53:49.531Z,26.65
2019-04-20T15:56:20.938Z,26.55
2019-04-20T15:58:52.828Z,26.42
2019-04-20T16:01:28.306Z,26.17
2019-04-20T16:04:21.657Z,26.10
2019-04-20T16:06:47.535Z,26.50
2019-04-20T16:09:19.948Z,26.29
2019-04-20T16:11:52.979Z,26.24
2019-04-20T16:14:25.685Z,25.94
2019-04-20T16:16:58.274Z,25.61
2019-04-20T16:19:41.776Z,25.38
2019-04-20T16:22:03.773Z,25.35
2019-04-20T16:24:38.510Z,25.32
2019-04-20T16:27:35.909Z,25.15
2019-04-20T16:30:09.661Z,25.04
2019-04-20T16:32:42.724Z,24.76
2019-04-20T16:35:14.424Z,24.62
2019-04-20T16:37:46.517Z,24.40
2019-04-20T16:40:18.092Z,24.24
2019-04-20T16:42:50.254Z,24.03
2019-04-20T16:45:21.645Z,23.89
2019-04-20T16:47:54.412Z,23.80
2019-04-20T16:50:26.906Z,23.70
2019-04-20T16:52:59.091Z,23.49
2019-04-20T16:55:30.618Z,23.38
2019-04-20T16:58:01.875Z,23.39
2019-04-20T17:00:33.556Z,23.17
2019-04-20T17:03:05.002Z,22.98
2019-04-20T17:05:37.040Z,22.75
2019-04-20T17:08:08.950Z,22.70
2019-04-20T17:10:41.026Z,22.54
2019-04-20T17:13:13.600Z,22.42
2019-04-20T17:15:45.788Z,22.19
2019-04-20T17:18:17.031Z,21.97
2019-04-20T17:20:48.465Z,21.86
2019-04-20T17:23:19.824Z,21.65
2019-04-20T17:25:52.304Z,21.51
2019-04-20T17:28:38.645Z,21.45
2019-04-20T17:31:43.403Z,21.15
2019-04-20T17:34:36.120Z,20.95
2019-04-20T17:36:50.599Z,20.56
2019-04-20T17:39:31.105Z,20.24
2019-04-20T17:42:12.584Z,19.88
2019-04-20T17:44:44.823Z,19.60
2019-04-20T17:47:24.894Z,19.24
2019-04-20T17:49:57.684Z,18.94
2019-04-20T17:52:36.407Z,18.74
2019-04-20T17:54:49.395Z,18.49
2019-04-20T17:57:21.494Z,18.25
2019-04-20T18:00:02.142Z,17.70
2019-04-20T18:02:58.556Z,17.26
2019-04-20T18:05:51.686Z,16.87
2019-04-20T18:08:26.342Z,16.76
2019-04-20T18:10:52.018Z,16.59
2019-04-20T18:13:18.494Z,16.38
2019-04-20T18:16:04.994Z,16.37
2019-04-20T18:18:49.495Z,16.25
2019-04-20T18:21:28.648Z,16.04
2019-04-20T18:24:00.545Z,15.93
2019-04-20T18:26:54.792Z,15.78
2019-04-20T18:29:26.316Z,15.72
2019-04-20T18:31:45.152Z,15.63
2019-04-20T18:34:34.343Z,15.60
2019-04-20T18:37:10.496Z,15.57
2019-04-20T18:39:43.822Z,15.60
2019-04-20T18:42:18.632Z,15.47
2019-04-20T18:45:05.985Z,15.47
2019-04-20T18:47:39.200Z,15.24
2019-04-20T18:50:04.487Z,14.63
2019-04-20T18:52:25.145Z,14.34
2019-04-20T18:54:57.587Z,14.11
2019-04-20T18:57:31.173Z,13.56
2019-04-20T19:00:02.916Z,13.37
2019-04-20T19:02:41.768Z,13.41
2019-04-20T19:05:11.505Z,13.37
2019-04-20T19:07:52.589Z,13.36
2019-04-20T19:10:24.774Z,13.34
2019-04-20T19:13:00.939Z,13.36
2019-04-20T19:16:00.244Z,13.15
2019-04-20T19:19:00.496Z,13.03
2019-04-20T19:21:21.506Z,12.83
2019-04-20T19:23:59.829Z,12.69
2019-04-20T19:26:27.270Z,12.61
2019-04-20T19:29:11.082Z,12.53
2019-04-20T19:31:46.087Z,12.37
2019-04-20T19:34:26.043Z,12.26
2019-04-20T19:36:47.714Z,12.11
2019-04-20T19:39:26.229Z,12.18
2019-04-20T19:41:52.644Z,12.07
2019-04-20T19:44:27.228Z,12.33
2019-04-20T19:47:11.186Z,12.36
2019-04-20T19:49:34.172Z,12.08
2019-04-20T19:52:25.166Z,11.93
2019-04-20T19:54:50.771Z,11.77
2019-04-20T19:57:24.344Z,11.85
2019-04-20T19:59:41.327Z,11.72
2019-04-20T20:02:11.779Z,11.65
2019-04-20T20:04:49.301Z,11.74
2019-04-20T20:07:25.722Z,11.63
2019-04-20T20:09:56.597Z,11.54
2019-04-20T20:12:23.381Z,11.38
2019-04-20T20:14:57.412Z,11.28
2019-04-20T20:17:48.475Z,11.19
2019-04-20T20:20:25.110Z,11.11
2019-04-20T20:22:41.341Z,11.01
2019-04-20T20:25:09.377Z,10.94
2019-04-20T20:27:49.187Z,10.93
2019-04-20T20:30:22.729Z,10.74
2019-04-20T20:33:04.502Z,10.74
2019-04-20T20:35:23.544Z,10.73
2019-04-20T20:37:57.835Z,10.79
2019-04-20T20:40:34.311Z,10.86
2019-04-20T20:43:10.768Z,10.90
2019-04-20T20:45:39.611Z,10.99
2019-04-20T20:48:28.537Z,10.96
2019-04-20T20:51:00.159Z,10.96
2019-04-20T20:53:23.010Z,10.84
2019-04-20T20:55:53.338Z,10.87
2019-04-20T20:58:33.592Z,10.66
2019-04-20T21:01:03.654Z,10.54
2019-04-20T21:03:34.656Z,10.98
2019-04-20T21:06:00.734Z,10.80
2019-04-20T21:08:36.209Z,10.55
2019-04-20T21:11:13.208Z,10.63
2019-04-20T21:13:43.335Z,10.78
2019-04-20T21:16:17.327Z,10.66
2019-04-20T21:19:00.794Z,10.75
2019-04-20T21:21:33.552Z,10.80
2019-04-20T21:24:00.346Z,10.83
2019-04-20T21:26:35.028Z,10.80
2019-04-20T21:29:01.522Z,10.75
2019-04-20T21:31:34.309Z,10.68
2019-04-20T21:34:09.745Z,10.67
2019-04-20T21:36:38.989Z,10.68
2019-04-20T21:39:20.324Z,10.73
2019-04-20T21:41:49.747Z,10.77
2019-04-20T21:44:25.047Z,10.75
2019-04-20T21:46:54.698Z,10.77
2019-04-20T21:49:38.779Z,10.79
2019-04-20T21:52:03.204Z,10.71
2019-04-20T21:54:31.976Z,10.67
2019-04-20T21:57:07.834Z,10.61
2019-04-20T21:59:43.207Z,10.67
2019-04-20T22:02:18.598Z,10.69
2019-04-20T22:04:43.468Z,10.79
2019-04-20T22:07:16.406Z,10.93
2019-04-20T22:09:51.636Z,11.12
2019-04-20T22:12:21.188Z,11.24
2019-04-20T22:15:00.034Z,11.23
2019-04-20T22:17:30.620Z,11.41
2019-04-20T22:20:12.000Z,11.59
2019-04-20T22:22:50.937Z,11.48
2019-04-20T22:25:28.366Z,11.41
2019-04-20T22:27:40.536Z,11.29
2019-04-20T22:30:14.518Z,11.12
2019-04-20T22:32:48.405Z,10.96
2019-04-20T22:35:19.714Z,10.84
2019-04-20T22:38:06.331Z,10.77
2019-04-20T22:40:33.933Z,10.79
2019-04-20T22:43:06.435Z,10.75
2019-04-20T22:45:41.151Z,10.62
2019-04-20T22:48:14.524Z,10.51
2019-04-20T22:51:03.583Z,10.47
2019-04-20T22:53:31.080Z,10.36
2019-04-20T22:56:16.787Z,10.31
2019-04-20T22:58:38.595Z,10.21
2019-04-20T23:01:04.298Z,10.08
2019-04-20T23:03:30.993Z,10.02
2019-04-20T23:06:02.847Z,10.19
2019-04-20T23:08:35.047Z,10.15
2019-04-20T23:11:14.835Z,10.11
2019-04-20T23:13:43.600Z,10.20
2019-04-20T23:16:13.539Z,10.20
2019-04-20T23:18:44.817Z,10.27
2019-04-20T23:21:17.594Z,10.33
2019-04-20T23:23:53.682Z,10.40
2019-04-20T23:26:28.062Z,10.52
2019-04-20T23:28:58.911Z,10.52
2019-04-20T23:31:29.035Z,10.60
2019-04-20T23:34:09.181Z,10.64
2019-04-20T23:36:40.334Z,10.61
2019-04-20T23:39:10.683Z,10.58
2019-04-20T23:41:51.713Z,10.50
2019-04-20T23:44:23.123Z,10.36
2019-04-20T23:47:08.839Z,10.32
2019-04-20T23:49:54.422Z,10.23
2019-04-20T23:52:35.510Z,10.22
2019-04-20T23:54:51.372Z,10.17
2019-04-20T23:57:17.669Z,10.22
2019-04-20T23:59:50.262Z,10.22
